Terminal Aerodrome Forecast
Issued by NWS

Home | Current Version | Previous Version | Text Only | Print | Product List | Glossary On
Versions: 1 2 3 4 5 6 7 8 9 10 11 12 13 14 15 16 17 18 19 20 21 22 23 24 25 26 27 28
000
FTUS45 KRIW 262028 AAA
TAFPNA
TAF AMD
KPNA 262028Z 2620/2718 VRB06KT P6SM VCTS SCT090CB BKN150
     FM270200 30007KT P6SM SCT100
     FM271500 VRB04KT P6SM SKC
      AMD LTD TO CLD VIS AND WIND=

USA.gov is the U.S. government's official web portal to all federal, state and local government web resources and services.